createdAt,value
2022-08-22T00:01:12.694Z,101182.28
2022-08-22T00:02:43.198Z,101304.72
2022-08-22T00:02:53.141Z,101345.56
2022-08-22T00:02:56.462Z,101285.63
2022-08-22T00:03:01.344Z,101351.94
2022-08-22T00:03:49.809Z,101184.03
2022-08-22T00:06:26.277Z,101182.28
2022-08-22T00:09:06.299Z,101167.53
2022-08-22T00:11:47.594Z,101164.91
2022-08-22T00:14:23.796Z,101164.03
2022-08-22T00:16:59.327Z,101164.91
2022-08-22T00:19:42.535Z,101159.69
2022-08-22T00:22:19.606Z,101171.84
2022-08-22T00:24:56.178Z,101170.13
2022-08-22T00:27:28.865Z,101156.22
2022-08-22T00:30:08.903Z,101147.53
2022-08-22T00:32:43.630Z,101154.47
2022-08-22T00:35:19.008Z,101145.81
2022-08-22T00:37:58.719Z,101150.13
2022-08-22T00:40:48.497Z,101138.00
2022-08-22T00:43:52.247Z,101137.97
2022-08-22T00:46:34.586Z,101139.72
2022-08-22T00:49:27.160Z,101147.56
2022-08-22T00:52:38.056Z,101144.06
2022-08-22T00:55:21.931Z,101140.59
2022-08-22T00:58:06.528Z,101141.47
2022-08-22T01:00:44.135Z,101134.50
2022-08-22T01:03:45.677Z,101134.50
2022-08-22T01:06:25.000Z,101124.13
2022-08-22T01:09:04.248Z,101130.22
2022-08-22T01:11:53.302Z,101138.03
2022-08-22T01:14:46.874Z,101141.50
2022-08-22T01:17:40.082Z,101136.28
2022-08-22T01:20:53.163Z,101117.19
2022-08-22T01:23:52.854Z,101110.22
2022-08-22T01:27:05.444Z,101106.75
2022-08-22T01:30:29.328Z,101094.59
2022-08-22T01:33:37.614Z,101090.25
2022-08-22T01:36:30.305Z,101091.13
2022-08-22T01:40:02.216Z,101092.84
2022-08-22T01:42:53.735Z,101078.97
2022-08-22T01:46:04.455Z,101083.31
2022-08-22T03:00:30.837Z,101018.25
2022-08-22T03:03:26.543Z,101015.66
2022-08-22T03:06:03.662Z,101009.56
2022-08-22T03:08:38.007Z,101004.34
2022-08-22T03:11:30.177Z,100997.41
2022-08-22T03:14:14.491Z,100993.91
2022-08-22T03:16:56.595Z,100991.31
2022-08-22T03:19:34.177Z,100995.66
2022-08-22T03:22:09.085Z,100988.72
2022-08-22T03:24:51.967Z,100987.00
2022-08-22T03:27:40.798Z,100979.16
2022-08-22T03:30:24.012Z,100966.13
2022-08-22T03:33:02.471Z,100965.25
2022-08-22T03:35:52.272Z,100958.31
2022-08-22T03:38:45.111Z,100957.47
2022-08-22T03:41:52.544Z,100970.47
2022-08-22T03:44:54.230Z,100973.91
2022-08-22T03:47:51.550Z,100975.66
2022-08-22T03:50:54.572Z,100977.41
2022-08-22T04:33:11.528Z,100914.09
2022-08-22T04:35:52.021Z,100914.09
2022-08-22T04:38:32.706Z,100909.78
2022-08-22T04:41:21.296Z,100911.47
2022-08-22T04:44:04.369Z,100908.91
2022-08-22T04:47:05.818Z,100913.22
2022-08-22T05:12:07.518Z,100894.13
2022-08-22T05:14:59.503Z,100894.13
2022-08-22T05:17:34.950Z,100894.13
2022-08-22T05:20:15.556Z,100884.56
2022-08-22T05:33:38.856Z,100863.66
2022-08-22T05:36:24.632Z,100869.75
2022-08-22T05:38:58.743Z,100859.28
2022-08-22T05:41:45.221Z,100864.44
2022-08-22T05:44:29.165Z,100852.25
2022-08-22T05:47:20.680Z,100857.41
2022-08-22T05:50:13.630Z,100852.13
2022-08-22T05:53:09.118Z,100852.94
2022-08-22T06:02:53.603Z,100857.00
2022-08-22T06:13:11.725Z,100849.31
2022-08-22T06:15:51.827Z,100846.69
2022-08-22T06:18:45.376Z,100847.53
2022-08-22T06:57:08.428Z,100844.66
2022-08-22T07:48:48.631Z,100842.66
2022-08-22T07:51:42.719Z,100833.13
2022-08-22T07:54:19.129Z,100836.47
2022-08-22T07:57:03.085Z,100831.94
2022-08-22T07:59:41.274Z,100827.53
2022-08-22T08:02:21.549Z,100828.34
2022-08-22T08:12:32.978Z,100833.19
2022-08-22T08:15:04.204Z,100828.84
2022-08-22T08:17:35.470Z,100835.91
2022-08-22T08:20:16.876Z,100833.19
2022-08-22T08:22:48.733Z,100832.28
2022-08-22T08:25:24.542Z,100836.59
2022-08-22T08:28:16.842Z,100830.25
2022-08-22T08:30:50.013Z,100838.84
2022-08-22T08:33:28.329Z,100830.00
2022-08-22T08:36:06.459Z,100825.50
2022-08-22T08:38:43.380Z,100828.66
2022-08-22T08:41:39.842Z,100821.41
2022-08-22T08:44:28.732Z,100821.63
2022-08-22T08:47:19.726Z,100820.91
2022-08-22T08:50:23.171Z,100821.31
2022-08-22T08:53:24.379Z,100835.34
2022-08-22T08:56:03.363Z,100820.09
2022-08-22T08:58:42.728Z,100819.16
2022-08-22T09:09:17.256Z,100824.09
2022-08-22T09:12:18.199Z,100820.94
2022-08-22T09:15:14.281Z,100830.09
2022-08-22T09:18:37.158Z,100830.53
2022-08-22T09:29:30.432Z,100833.34
2022-08-22T09:32:13.042Z,100830.47
2022-08-22T09:35:00.323Z,100831.13
2022-08-22T09:37:37.462Z,100833.41
2022-08-22T09:40:18.839Z,100835.22
2022-08-22T09:42:57.568Z,100830.97
2022-08-22T09:45:47.921Z,100844.75
2022-08-22T09:48:44.238Z,100838.81
2022-08-22T09:51:33.108Z,100845.19
2022-08-22T09:54:16.310Z,100845.25
2022-08-22T09:56:59.768Z,100844.31
2022-08-22T09:59:43.295Z,100847.03
2022-08-22T10:02:54.912Z,100849.44
2022-08-22T10:05:35.294Z,100850.34
2022-08-22T10:08:27.316Z,100845.16
2022-08-22T10:11:07.478Z,100847.91
2022-08-22T10:14:03.735Z,100857.84
2022-08-22T10:16:47.170Z,100854.50
2022-08-22T10:19:30.326Z,100860.72
2022-08-22T10:22:20.630Z,100865.06
2022-08-22T10:25:18.573Z,100861.06
2022-08-22T10:27:57.394Z,100867.41
2022-08-22T10:30:36.537Z,100858.84
2022-08-22T10:33:12.910Z,100859.97
2022-08-22T10:36:01.150Z,100862.97
2022-08-22T10:38:46.880Z,100860.31
2022-08-22T10:41:27.033Z,100862.50
2022-08-22T10:44:04.906Z,100864.06
2022-08-22T10:46:42.209Z,100863.31
2022-08-22T10:49:22.417Z,100859.78
2022-08-22T10:51:54.647Z,100866.25
2022-08-22T11:02:42.244Z,100873.78
2022-08-22T11:05:35.988Z,100865.91
2022-08-22T11:08:54.321Z,100873.00
2022-08-22T11:11:47.739Z,100870.88
2022-08-22T11:14:39.003Z,100862.84
2022-08-22T11:17:28.867Z,100865.53
2022-08-22T11:20:19.462Z,100860.63
2022-08-22T11:56:32.669Z,100851.13
2022-08-22T12:00:09.034Z,100843.50
2022-08-22T14:32:50.945Z,100804.69
2022-08-22T14:52:20.497Z,100797.50
2022-08-22T14:55:17.405Z,100803.75
2022-08-22T15:04:30.872Z,100797.53
2022-08-22T17:03:58.896Z,100788.44
2022-08-22T17:46:13.443Z,100789.19
